Time;durP1;ratioP1;P1;durP2;ratioP2;P2;SDS_P1;SDS_P2;PMS_P1;PMS_P2;Temp;Humidity;BMP_temperature;BMP_pressure;BME280_temperature;BME280_humidity;BME280_pressure;Samples;Min_cycle;Max_cycle;Signal;HPM_P1;HPM_P2
2022/07/16 00:01:22;;;;;;;;;;;;;;;13.90;100.00;101080.72;5050350;28;19929;-80
2022/07/16 00:01:50;;;;;;;;;;;;;;;13.82;100.00;101073.16;5049755;28;19925;-80
2022/07/16 00:04:18;;;;;;;;;;;;;;;13.88;100.00;101076.66;5046141;28;19924;-79
2022/07/16 00:06:50;;;;;;;;;;;;;;;13.87;100.00;101064.09;5036740;28;19948;-80
2022/07/16 00:09:25;;;;;;;;;;;;;;;13.81;100.00;101060.63;5042837;28;19925;-79
2022/07/16 00:11:53;;;;;;;;;;;;;;;13.80;100.00;101063.66;5042089;28;19925;-79
2022/07/16 00:14:20;;;;;;;;;;;;;;;13.70;100.00;101061.81;5063181;28;20325;-79
2022/07/16 00:16:53;;;;;;;;;;;;;;;13.69;100.00;101057.47;5047036;28;19925;-79
2022/07/16 00:19:25;;;;;;;;;;;;;;;13.65;100.00;101038.09;5038527;28;19940;-82
2022/07/16 00:21:58;;;;;;;;;;;;;;;13.59;100.00;101042.81;5041844;28;19929;-79
2022/07/16 00:24:33;;;;;;;;;;;;;;;13.62;100.00;101035.94;5045629;28;19937;-80
2022/07/16 00:27:06;;;;;;;;;;;;;;;13.58;100.00;101032.97;5044074;28;19950;-79
2022/07/16 00:29:34;;;;;;;;;;;;;;;13.52;100.00;101025.13;5046674;28;19925;-79
2022/07/16 00:32:07;;;;;;;;;;;;;;;13.46;100.00;101024.38;5053998;28;19925;-79
2022/07/16 00:34:35;;;;;;;;;;;;;;;13.54;100.00;101015.53;5045192;28;19924;-79
2022/07/16 00:37:08;;;;;;;;;;;;;;;13.53;100.00;101015.81;5039402;28;19925;-80
2022/07/16 00:39:37;;;;;;;;;;;;;;;13.57;100.00;101008.66;5041753;28;19936;-79
2022/07/16 00:42:10;;;;;;;;;;;;;;;13.57;100.00;101011.38;5036512;28;19960;-80
2022/07/16 00:44:43;;;;;;;;;;;;;;;13.61;100.00;101001.50;5053700;28;19925;-80
2022/07/16 00:47:11;;;;;;;;;;;;;;;13.59;100.00;100998.25;5044222;28;20266;-80
2022/07/16 00:49:44;;;;;;;;;;;;;;;13.56;100.00;100999.66;5044779;28;19952;-79
2022/07/16 00:52:17;;;;;;;;;;;;;;;13.48;100.00;100999.47;5039363;28;19933;-80
2022/07/16 00:54:46;;;;;;;;;;;;;;;13.52;100.00;100992.31;5044512;28;19936;-80
2022/07/16 00:57:14;;;;;;;;;;;;;;;13.51;100.00;100993.44;5035015;28;19925;-79
2022/07/16 00:59:42;;;;;;;;;;;;;;;13.49;100.00;100987.44;5061681;28;19940;-79
2022/07/16 01:02:10;;;;;;;;;;;;;;;13.46;100.00;100988.03;5053136;28;20371;-80
2022/07/16 01:04:44;;;;;;;;;;;;;;;13.49;100.00;100987.44;5051962;28;19932;-80
2022/07/16 01:07:17;;;;;;;;;;;;;;;13.48;100.00;100980.31;5045382;28;19940;-80
2022/07/16 01:09:52;;;;;;;;;;;;;;;13.52;100.00;100978.63;5048288;28;19956;-80
2022/07/16 01:12:20;;;;;;;;;;;;;;;13.57;100.00;100976.66;5044985;28;19944;-81
2022/07/16 01:14:53;;;;;;;;;;;;;;;13.60;100.00;100973.34;5044100;28;19929;-79
2022/07/16 01:17:21;;;;;;;;;;;;;;;13.59;100.00;100960.78;5048412;28;19929;-80
2022/07/16 01:19:54;;;;;;;;;;;;;;;13.60;100.00;100969.78;5042404;28;19931;-81
2022/07/16 01:22:27;;;;;;;;;;;;;;;13.64;100.00;100968.09;5038561;28;19933;-81
2022/07/16 01:25:01;;;;;;;;;;;;;;;13.63;100.00;100952.81;5037082;28;19925;-78
2022/07/16 01:27:34;;;;;;;;;;;;;;;13.60;100.00;100951.47;5041461;28;20529;-79
2022/07/16 01:30:08;;;;;;;;;;;;;;;13.56;100.00;100944.97;5046297;28;20301;-80
2022/07/16 01:32:41;;;;;;;;;;;;;;;13.54;100.00;100954.56;5047400;28;19925;-79
2022/07/16 01:35:14;;;;;;;;;;;;;;;13.49;100.00;100940.94;5043224;28;20405;-81
2022/07/16 01:37:42;;;;;;;;;;;;;;;13.40;100.00;100940.78;5038896;28;19940;-81
2022/07/16 01:40:12;;;;;;;;;;;;;;;13.35;100.00;100935.34;5042064;28;20378;-80
2022/07/16 01:42:42;;;;;;;;;;;;;;;13.26;100.00;100937.94;5038484;28;20289;-80
2022/07/16 01:45:10;;;;;;;;;;;;;;;13.24;100.00;100934.66;5054751;28;19925;-80
2022/07/16 01:47:43;;;;;;;;;;;;;;;13.22;100.00;100931.41;5053269;28;19925;-82
2022/07/16 01:50:16;;;;;;;;;;;;;;;13.19;100.00;100929.28;5043897;28;19947;-82
2022/07/16 01:52:44;;;;;;;;;;;;;;;13.15;100.00;100933.69;5044011;28;19932;-80
2022/07/16 01:55:18;;;;;;;;;;;;;;;13.17;100.00;100926.81;5039145;28;19933;-81
2022/07/16 01:57:51;;;;;;;;;;;;;;;13.13;100.00;100922.22;5043694;28;19925;-79
2022/07/16 02:00:24;;;;;;;;;;;;;;;13.14;100.00;100927.41;5047597;28;19925;-80
2022/07/16 02:02:53;;;;;;;;;;;;;;;13.10;100.00;100926.34;5036548;28;20405;-82
2022/07/16 02:05:21;;;;;;;;;;;;;;;13.13;100.00;100927.69;5040047;28;20397;-79
2022/07/16 02:07:49;;;;;;;;;;;;;;;12.98;100.00;100929.50;5044914;28;19925;-81
2022/07/16 02:10:23;;;;;;;;;;;;;;;12.93;100.00;100916.69;5039946;28;20000;-78
2022/07/16 02:12:56;;;;;;;;;;;;;;;12.93;100.00;100921.34;5044949;28;19929;-79
2022/07/16 02:15:29;;;;;;;;;;;;;;;12.90;100.00;100916.47;5038491;28;20312;-78
2022/07/16 02:18:02;;;;;;;;;;;;;;;12.90;100.00;100917.28;5048543;28;19929;-79
2022/07/16 02:20:35;;;;;;;;;;;;;;;13.00;100.00;100907.34;5043303;28;19929;-80
2022/07/16 02:23:08;;;;;;;;;;;;;;;12.90;100.00;100897.34;5039945;28;19933;-80
2022/07/16 02:25:42;;;;;;;;;;;;;;;12.93;100.00;100900.31;5039578;28;19936;-82
2022/07/16 02:28:10;;;;;;;;;;;;;;;12.98;100.00;100910.38;5042883;28;19925;-80
2022/07/16 02:30:44;;;;;;;;;;;;;;;12.92;100.00;100900.59;5045485;28;19929;-80
2022/07/16 02:33:18;;;;;;;;;;;;;;;12.96;100.00;100901.66;5037945;28;19925;-80
2022/07/16 02:35:51;;;;;;;;;;;;;;;12.91;100.00;100902.53;5041461;28;19936;-79
2022/07/16 02:38:24;;;;;;;;;;;;;;;12.88;100.00;100905.81;5035473;28;19932;-78
2022/07/16 02:40:53;;;;;;;;;;;;;;;12.89;100.00;100901.97;5047289;28;19948;-80
2022/07/16 02:43:26;;;;;;;;;;;;;;;12.93;100.00;100896.75;5041349;28;20286;-79
2022/07/16 02:45:59;;;;;;;;;;;;;;;12.95;100.00;100900.00;5050905;28;19925;-80
2022/07/16 02:48:32;;;;;;;;;;;;;;;12.96;100.00;100900.84;5054947;28;19925;-81
2022/07/16 02:51:06;;;;;;;;;;;;;;;12.96;100.00;100900.84;5040052;28;19929;-79
2022/07/16 02:53:39;;;;;;;;;;;;;;;12.92;100.00;100911.53;5050919;28;19924;-79
2022/07/16 02:56:13;;;;;;;;;;;;;;;12.99;100.00;100903.78;5036444;28;19929;-80
2022/07/16 02:58:46;;;;;;;;;;;;;;;13.04;100.00;100909.19;5042869;28;19936;-79
2022/07/16 03:01:14;;;;;;;;;;;;;;;13.01;100.00;100898.88;5037874;28;19929;-78
2022/07/16 03:03:47;;;;;;;;;;;;;;;12.99;100.00;100905.72;5046093;28;19932;-79
2022/07/16 03:06:20;;;;;;;;;;;;;;;13.03;100.00;100910.28;5041300;28;19925;-79
2022/07/16 03:08:48;;;;;;;;;;;;;;;13.06;100.00;100909.75;5042598;28;19933;-79
2022/07/16 03:11:23;;;;;;;;;;;;;;;13.05;100.00;100907.28;5039931;28;19929;-79
2022/07/16 03:13:56;;;;;;;;;;;;;;;13.08;100.00;100912.97;5047175;28;19928;-79
2022/07/16 03:16:28;;;;;;;;;;;;;;;13.10;100.00;100920.88;5047777;28;19933;-81
2022/07/16 03:18:56;;;;;;;;;;;;;;;13.08;100.00;100923.09;5031153;28;20413;-81
2022/07/16 03:21:29;;;;;;;;;;;;;;;13.10;100.00;100934.53;5029988;28;20301;-80
2022/07/16 03:23:57;;;;;;;;;;;;;;;13.15;100.00;100936.44;5062996;28;19936;-81
2022/07/16 03:26:31;;;;;;;;;;;;;;;13.06;100.00;100942.53;5033132;28;19932;-80
2022/07/16 03:29:05;;;;;;;;;;;;;;;13.05;100.00;100943.63;5049082;28;19932;-80
2022/07/16 03:31:38;;;;;;;;;;;;;;;13.10;100.00;100953.66;5049534;28;19958;-80
2022/07/16 03:34:06;;;;;;;;;;;;;;;13.09;100.00;100943.84;5044408;28;20370;-81
2022/07/16 03:36:34;;;;;;;;;;;;;;;13.06;100.00;100952.63;5029846;28;19936;-81
2022/07/16 03:39:03;;;;;;;;;;;;;;;13.10;100.00;100953.66;5062833;28;20412;-81
2022/07/16 03:41:37;;;;;;;;;;;;;;;13.06;100.00;100958.91;5029711;28;20389;-80
2022/07/16 03:44:12;;;;;;;;;;;;;;;13.07;100.00;100960.53;5031118;28;19925;-81
2022/07/16 03:46:44;;;;;;;;;;;;;;;13.04;100.00;100958.38;5031091;28;19926;-81
2022/07/16 03:49:17;;;;;;;;;;;;;;;13.00;100.00;100972.91;5030527;28;19933;-79
2022/07/16 03:51:50;;;;;;;;;;;;;;;12.98;100.00;100972.38;5031583;28;19925;-81
2022/07/16 03:54:23;;;;;;;;;;;;;;;13.03;100.00;100977.78;5030846;28;19929;-81
2022/07/16 03:56:57;;;;;;;;;;;;;;;13.01;100.00;100974.53;5030993;28;19925;-81
2022/07/16 03:59:31;;;;;;;;;;;;;;;12.97;100.00;100979.78;5029305;28;19933;-80
2022/07/16 04:02:04;;;;;;;;;;;;;;;13.06;100.00;100978.03;5031309;28;20297;-82
2022/07/16 04:04:36;;;;;;;;;;;;;;;13.01;100.00;100972.63;5029575;28;19929;-80
2022/07/16 04:07:09;;;;;;;;;;;;;;;13.01;100.00;100974.53;5030950;28;19940;-82
2022/07/16 04:09:42;;;;;;;;;;;;;;;12.95;100.00;100981.16;5030583;28;19956;-82
2022/07/16 04:12:17;;;;;;;;;;;;;;;12.92;100.00;100982.53;5030622;28;19926;-81
2022/07/16 04:14:50;;;;;;;;;;;;;;;12.86;100.00;100975.50;5033051;28;19937;-84
2022/07/16 04:17:23;;;;;;;;;;;;;;;12.88;100.00;100979.56;5029750;28;19929;-85
2022/07/16 04:19:51;;;;;;;;;;;;;;;12.91;100.00;100998.13;5034310;28;19948;-85
2022/07/16 04:22:24;;;;;;;;;;;;;;;12.90;100.00;100992.97;5034450;28;19929;-85
2022/07/16 04:24:56;;;;;;;;;;;;;;;12.92;100.00;100994.28;5033035;28;19925;-85
2022/07/16 04:27:31;;;;;;;;;;;;;;;12.98;100.00;100995.06;5034217;28;19940;-84
2022/07/16 04:30:04;;;;;;;;;;;;;;;13.06;100.00;101004.53;5033996;28;19929;-86
2022/07/16 04:32:37;;;;;;;;;;;;;;;13.23;100.00;101006.81;5044159;28;19925;-86
2022/07/16 04:35:12;;;;;;;;;;;;;;;13.39;100.00;101010.22;5054226;28;19952;-87
2022/07/16 04:37:40;;;;;;;;;;;;;;;13.32;100.00;101004.28;5052556;28;19929;-86
2022/07/16 04:40:10;;;;;;;;;;;;;;;13.26;100.00;101001.59;5052331;28;19929;-86
2022/07/16 04:42:44;;;;;;;;;;;;;;;13.33;100.00;101003.97;5040251;28;20409;-86
2022/07/16 04:45:18;;;;;;;;;;;;;;;13.35;100.00;101007.25;5034152;28;20509;-87
2022/07/16 04:47:51;;;;;;;;;;;;;;;13.27;100.00;101014.16;5034115;28;19925;-87
2022/07/16 04:50:24;;;;;;;;;;;;;;;13.24;100.00;101014.75;5033742;28;19925;-88
2022/07/16 04:52:56;;;;;;;;;;;;;;;13.20;100.00;101029.25;5065353;28;19925;-85
2022/07/16 04:55:29;;;;;;;;;;;;;;;13.23;100.00;101023.22;5033893;28;19929;-87
2022/07/16 04:57:58;;;;;;;;;;;;;;;13.18;100.00;101024.09;5033127;28;19930;-87
2022/07/16 05:00:27;;;;;;;;;;;;;;;13.23;100.00;101024.03;5040538;28;19925;-86
2022/07/16 05:02:57;;;;;;;;;;;;;;;13.31;100.00;101030.78;5040863;28;19936;-88
2022/07/16 05:05:31;;;;;;;;;;;;;;;13.28;100.00;101031.38;5046875;28;19936;-86
2022/07/16 05:08:05;;;;;;;;;;;;;;;13.20;100.00;101041.03;5037839;28;19940;-87
2022/07/16 05:10:33;;;;;;;;;;;;;;;13.22;100.00;101046.19;5046237;28;20245;-86
2022/07/16 05:13:10;;;;;;;;;;;;;;;14.04;100.00;101047.19;5050786;28;19924;-87
2022/07/16 05:15:43;;;;;;;;;;;;;;;15.38;100.00;101043.13;5041487;28;19929;-86
2022/07/16 05:18:11;;;;;;;;;;;;;;;16.82;100.00;101036.44;5045358;28;19925;-85
2022/07/16 05:20:44;;;;;;;;;;;;;;;18.42;100.00;101045.78;5051758;28;19928;-85
2022/07/16 05:23:12;;;;;;;;;;;;;;;19.27;100.00;101036.88;5052101;28;19932;-85
2022/07/16 05:25:45;;;;;;;;;;;;;;;20.00;100.00;101044.19;5053182;28;19928;-86
2022/07/16 05:28:19;;;;;;;;;;;;;;;18.09;100.00;101049.81;5033415;28;19929;-86
2022/07/16 05:30:52;;;;;;;;;;;;;;;17.67;100.00;101066.66;5030711;28;19925;-87
2022/07/16 05:33:20;;;;;;;;;;;;;;;17.24;100.00;101061.78;5040884;28;19929;-85
2022/07/16 05:35:53;;;;;;;;;;;;;;;18.20;100.00;101064.06;5033117;28;19936;-84
2022/07/16 05:38:21;;;;;;;;;;;;;;;17.13;100.00;101063.19;5031821;28;19949;-85
2022/07/16 05:40:54;;;;;;;;;;;;;;;16.91;100.00;101070.34;5031550;28;19932;-86
2022/07/16 05:43:23;;;;;;;;;;;;;;;15.83;100.00;101077.44;5032831;28;19925;-86
2022/07/16 05:45:56;;;;;;;;;;;;;;;14.96;100.00;101086.91;5032859;28;19925;-85
2022/07/16 05:48:29;;;;;;;;;;;;;;;14.58;100.00;101084.22;5032792;28;20346;-85
2022/07/16 05:50:57;;;;;;;;;;;;;;;14.51;100.00;101091.16;5063682;28;19925;-86
2022/07/16 05:53:30;;;;;;;;;;;;;;;14.41;100.00;101095.66;5032526;28;19936;-85
2022/07/16 05:56:03;;;;;;;;;;;;;;;14.02;100.00;101090.47;5032678;28;19929;-85
2022/07/16 05:58:32;;;;;;;;;;;;;;;14.11;100.00;101105.09;5042115;28;19952;-84
2022/07/16 06:01:05;;;;;;;;;;;;;;;13.78;100.00;101107.69;5045127;28;19928;-86
2022/07/16 06:03:38;;;;;;;;;;;;;;;13.62;100.00;101107.06;5032557;28;19932;-85
2022/07/16 06:06:11;;;;;;;;;;;;;;;13.68;100.00;101114.09;5030979;28;19925;-86
2022/07/16 06:08:44;;;;;;;;;;;;;;;13.64;100.00;101123.16;5052209;28;19924;-86
2022/07/16 06:11:16;;;;;;;;;;;;;;;13.66;100.00;101121.78;5050760;28;20409;-85
2022/07/16 06:13:46;;;;;;;;;;;;;;;13.61;100.00;101121.81;5052163;28;19928;-84
2022/07/16 06:16:20;;;;;;;;;;;;;;;13.77;100.00;101128.75;5051007;28;19925;-85
2022/07/16 06:18:53;;;;;;;;;;;;;;;13.69;100.00;101126.66;5052022;28;19929;-85
2022/07/16 06:21:26;;;;;;;;;;;;;;;13.59;100.00;101130.31;5052146;28;19925;-87
2022/07/16 06:23:54;;;;;;;;;;;;;;;13.65;100.00;101138.47;5045349;28;19925;-85
2022/07/16 06:26:22;;;;;;;;;;;;;;;13.70;100.00;101141.13;5031512;28;19932;-84
2022/07/16 06:28:51;;;;;;;;;;;;;;;13.73;100.00;101135.91;5051249;28;19928;-85
2022/07/16 06:31:24;;;;;;;;;;;;;;;13.93;100.00;101143.09;5050884;28;20293;-85
2022/07/16 06:33:57;;;;;;;;;;;;;;;14.11;100.00;101137.94;5050224;28;19947;-85
2022/07/16 06:36:25;;;;;;;;;;;;;;;14.53;100.00;101146.44;5049801;28;19936;-85
2022/07/16 06:38:58;;;;;;;;;;;;;;;14.64;100.00;101145.25;5049887;28;19925;-87
2022/07/16 06:41:26;;;;;;;;;;;;;;;14.62;100.00;101152.88;5040348;28;19925;-85
2022/07/16 06:44:00;;;;;;;;;;;;;;;14.48;100.00;101141.06;5030595;28;19925;-86
2022/07/16 06:46:28;;;;;;;;;;;;;;;14.56;100.00;101160.38;5031547;28;20386;-85
2022/07/16 06:48:56;;;;;;;;;;;;;;;14.25;100.00;101152.56;5063504;28;19925;-85
2022/07/16 06:51:24;;;;;;;;;;;;;;;14.18;100.00;101162.22;5063482;28;20381;-84
2022/07/16 06:53:57;;;;;;;;;;;;;;;14.22;100.00;101164.09;5031548;28;19932;-86
2022/07/16 06:56:30;;;;;;;;;;;;;;;14.25;100.00;101168.16;5037677;28;20393;-86
2022/07/16 06:58:58;;;;;;;;;;;;;;;14.13;100.00;101171.31;5039113;28;20405;-84
2022/07/16 07:01:32;;;;;;;;;;;;;;;14.23;100.00;101173.13;5045331;28;19939;-83
2022/07/16 07:04:00;;;;;;;;;;;;;;;14.14;100.00;101183.09;5039641;28;19924;-84
2022/07/16 07:06:32;;;;;;;;;;;;;;;14.09;100.00;101175.75;5040887;28;20373;-84
2022/07/16 07:09:05;;;;;;;;;;;;;;;14.08;100.00;101185.06;5040723;28;20289;-84
2022/07/16 07:11:38;;;;;;;;;;;;;;;14.14;100.00;101183.09;5040088;28;19935;-82
2022/07/16 07:14:11;;;;;;;;;;;;;;;13.98;100.00;101187.94;5040315;28;19929;-85
2022/07/16 07:16:46;;;;;;;;;;;;;;;14.04;100.00;101197.69;5042369;28;19939;-84
2022/07/16 07:19:19;;;;;;;;;;;;;;;14.09;100.00;101201.19;5042940;28;20424;-83
2022/07/16 07:21:46;;;;;;;;;;;;;;;14.09;100.00;101195.72;5038106;28;19940;-86
2022/07/16 07:24:19;;;;;;;;;;;;;;;14.59;100.00;101189.91;5041881;28;19925;-85
2022/07/16 07:26:52;;;;;;;;;;;;;;;14.73;100.00;101195.50;5042547;28;19929;-87
2022/07/16 07:29:25;;;;;;;;;;;;;;;15.02;100.00;101186.31;5041109;28;19970;-83
2022/07/16 07:32:00;;;;;;;;;;;;;;;14.94;100.00;101197.94;5034344;28;19932;-82
2022/07/16 07:34:27;;;;;;;;;;;;;;;15.12;100.00;101204.53;5037208;28;19927;-83
2022/07/16 07:36:56;;;;;;;;;;;;;;;15.24;100.00;101195.84;5033652;28;19936;-85
2022/07/16 07:39:29;;;;;;;;;;;;;;;15.32;100.00;101194.38;5039270;28;19932;-85
2022/07/16 07:42:02;;;;;;;;;;;;;;;15.40;100.00;101210.16;5043750;28;19928;-83
2022/07/16 07:44:30;;;;;;;;;;;;;;;15.58;100.00;101202.97;5036861;28;19932;-85
2022/07/16 07:47:05;;;;;;;;;;;;;;;15.65;100.00;101211.63;5040705;28;20292;-83
2022/07/16 07:49:38;;;;;;;;;;;;;;;15.72;100.00;101206.56;5040265;28;19925;-83
2022/07/16 07:52:10;;;;;;;;;;;;;;;15.65;100.00;101212.44;5042267;28;19925;-83
2022/07/16 07:54:44;;;;;;;;;;;;;;;15.63;100.00;101209.19;5043193;28;19925;-84
2022/07/16 07:57:17;;;;;;;;;;;;;;;15.16;100.00;101215.72;5050051;28;19925;-82
2022/07/16 07:59:44;;;;;;;;;;;;;;;15.03;100.00;101220.84;5037479;28;19925;-83
2022/07/16 08:02:14;;;;;;;;;;;;;;;15.43;100.00;101232.28;5050823;28;19952;-83
2022/07/16 08:04:47;;;;;;;;;;;;;;;15.55;100.00;101226.34;5041870;28;19932;-89
2022/07/16 08:07:20;;;;;;;;;;;;;;;15.78;100.00;101213.59;5043440;28;19929;-83
2022/07/16 08:09:48;;;;;;;;;;;;;;;15.90;100.00;101237.81;5042341;28;19928;-84
2022/07/16 08:12:21;;;;;;;;;;;;;;;15.85;100.00;101221.44;5045377;28;19932;-85
2022/07/16 08:14:54;;;;;;;;;;;;;;;15.72;100.00;101224.97;5043816;28;19925;-83
2022/07/16 08:17:28;;;;;;;;;;;;;;;15.60;100.00;101226.22;5038385;28;19952;-86
2022/07/16 08:19:56;;;;;;;;;;;;;;;15.43;100.00;101240.50;5052418;28;19928;-87
2022/07/16 08:22:24;;;;;;;;;;;;;;;15.61;100.00;101233.34;5048150;28;20400;-87
2022/07/16 08:27:47;;;;;;;;;;;;;;;16.41;100.00;101236.03;5053112;28;19929;-85
2022/07/16 08:30:20;;;;;;;;;;;;;;;16.67;100.00;101241.81;5059431;28;19925;-85
2022/07/16 08:32:50;;;;;;;;;;;;;;;15.91;100.00;101241.38;5038607;28;19925;-85
2022/07/16 08:35:18;;;;;;;;;;;;;;;15.84;100.00;101243.72;5051844;28;19925;-85
2022/07/16 08:37:51;;;;;;;;;;;;;;;16.03;100.00;101240.91;5039573;28;20301;-87
2022/07/16 08:40:24;;;;;;;;;;;;;;;16.35;100.00;101231.78;5042245;28;19929;-84
2022/07/16 08:42:52;;;;;;;;;;;;;;;16.61;100.00;101234.81;5040947;28;19932;-85
2022/07/16 08:45:22;;;;;;;;;;;;;;;16.81;100.00;101241.00;5043047;28;20290;-85
2022/07/16 08:47:56;;;;;;;;;;;;;;;16.79;100.00;101248.72;5044080;28;19929;-88
2022/07/16 08:50:29;;;;;;;;;;;;;;;16.94;100.00;101239.34;5045278;28;19933;-86
2022/07/16 08:52:58;;;;;;;;;;;;;;;17.26;100.00;101246.59;5045488;28;19929;-88
2022/07/16 08:55:26;;;;;;;;;;;;;;;17.17;100.00;101249.25;5039210;28;19925;-88
2022/07/16 08:57:57;;;;;;;;;;;;;;;17.29;100.00;101250.63;5050722;28;19935;-88
2022/07/16 09:00:25;;;;;;;;;;;;;;;16.77;96.39;101249.03;5045755;28;20401;-86
2022/07/16 09:02:53;;;;;;;;;;;;;;;16.90;100.00;101247.38;5048384;28;19936;-87
2022/07/16 09:05:28;;;;;;;;;;;;;;;17.14;99.81;101252.63;5045962;28;19936;-84
2022/07/16 09:08:01;;;;;;;;;;;;;;;17.36;100.00;101255.72;5048486;28;19939;-85
2022/07/16 09:10:34;;;;;;;;;;;;;;;17.44;95.42;101252.22;5048694;28;19933;-87
2022/07/16 09:13:09;;;;;;;;;;;;;;;17.28;93.01;101254.53;5046852;28;20149;-87
2022/07/16 09:15:43;;;;;;;;;;;;;;;16.88;92.39;101260.63;5046323;28;20312;-87
2022/07/16 09:18:21;;;;;;;;;;;;;;;17.05;90.54;101273.75;5048094;28;19925;-88
2022/07/16 09:20:52;;;;;;;;;;;;;;;17.42;98.61;101271.00;5042597;28;19925;-86
2022/07/16 09:23:27;;;;;;;;;;;;;;;17.30;89.07;101275.13;5045081;28;19936;-85
2022/07/16 09:25:56;;;;;;;;;;;;;;;17.39;90.15;101272.41;5040026;28;19925;-86
2022/07/16 09:28:38;;;;;;;;;;;;;;;16.96;90.16;101270.91;5041401;28;19933;-87
2022/07/16 09:31:06;;;;;;;;;;;;;;;17.33;96.77;101277.22;5053720;28;19928;-88
2022/07/16 09:33:40;;;;;;;;;;;;;;;17.52;91.52;101281.72;5034730;28;19925;-87
2022/07/16 09:36:11;;;;;;;;;;;;;;;17.56;88.13;101268.19;5035691;28;19929;-87
2022/07/16 09:38:51;;;;;;;;;;;;;;;17.68;91.79;101274.72;5038960;28;19929;-86
2022/07/16 09:41:24;;;;;;;;;;;;;;;17.64;90.43;101276.47;5044039;28;19933;-85
2022/07/16 09:43:52;;;;;;;;;;;;;;;18.09;87.54;101281.16;5041173;28;19936;-89
2022/07/16 09:46:21;;;;;;;;;;;;;;;17.72;86.82;101276.84;5051390;28;19926;-86
2022/07/16 09:48:49;;;;;;;;;;;;;;;18.10;97.23;101285.53;5052764;28;19925;-85
2022/07/16 09:51:25;;;;;;;;;;;;;;;18.28;86.10;101283.66;5055636;28;20313;-89
2022/07/16 09:53:58;;;;;;;;;;;;;;;18.40;87.50;101285.03;5042229;28;19925;-86
2022/07/16 09:56:31;;;;;;;;;;;;;;;18.33;94.61;101280.78;5045434;28;20316;-88
2022/07/16 09:59:05;;;;;;;;;;;;;;;17.64;79.86;101281.19;5050631;28;19925;-88
2022/07/16 10:01:38;;;;;;;;;;;;;;;17.65;95.98;101282.81;5047799;28;19925;-87
2022/07/16 10:04:11;;;;;;;;;;;;;;;17.61;95.90;101285.38;5044452;28;19925;-88
2022/07/16 10:06:45;;;;;;;;;;;;;;;17.40;94.53;101300.75;5048116;28;19929;-87
2022/07/16 10:09:18;;;;;;;;;;;;;;;17.19;91.79;101303.94;5040962;28;20214;-88
2022/07/16 10:11:46;;;;;;;;;;;;;;;17.71;88.52;101298.06;5041041;28;19940;-87
2022/07/16 10:14:19;;;;;;;;;;;;;;;17.94;85.90;101296.16;5043432;28;19932;-86
2022/07/16 10:16:48;;;;;;;;;;;;;;;18.02;83.74;101306.41;5045733;28;19929;-88
2022/07/16 10:19:23;;;;;;;;;;;;;;;18.39;84.05;101300.72;5049760;28;19929;-88
2022/07/16 10:22:20;;;;;;;;;;;;;;;18.35;85.98;101308.84;5045497;28;19935;-87
2022/07/16 10:24:54;;;;;;;;;;;;;;;17.57;94.42;101317.41;5039792;28;20410;-89
2022/07/16 10:27:25;;;;;;;;;;;;;;;17.09;100.00;101320.69;5040095;28;19929;-86
2022/07/16 10:30:14;;;;;;;;;;;;;;;17.47;100.00;101318.44;5045138;28;19929;-88
2022/07/16 10:33:06;;;;;;;;;;;;;;;17.87;91.40;101323.28;5046360;28;19928;-89
2022/07/16 10:35:37;;;;;;;;;;;;;;;17.94;92.03;101323.69;5039188;28;19932;-86
2022/07/16 10:38:07;;;;;;;;;;;;;;;18.24;92.55;101323.19;5042868;28;19936;-89
2022/07/16 10:40:43;;;;;;;;;;;;;;;18.72;89.24;101325.19;5037133;28;19925;-90
2022/07/16 10:43:15;;;;;;;;;;;;;;;17.79;83.57;101346.88;5052047;28;20308;-90
2022/07/16 10:45:50;;;;;;;;;;;;;;;17.18;86.62;101338.09;5042829;28;19932;-88
2022/07/16 10:48:24;;;;;;;;;;;;;;;17.41;84.29;101343.63;5052205;28;19924;-89
2022/07/16 10:51:15;;;;;;;;;;;;;;;17.95;84.43;101339.09;5034863;28;19933;-85
2022/07/16 10:54:18;;;;;;;;;;;;;;;17.76;81.89;101347.50;5034293;28;19932;-87
2022/07/16 10:56:54;;;;;;;;;;;;;;;18.52;82.51;101351.38;5026060;28;19964;-82
2022/07/16 10:59:27;;;;;;;;;;;;;;;18.38;82.96;101348.72;5024565;28;19933;-84
2022/07/16 11:02:01;;;;;;;;;;;;;;;18.57;86.35;101376.03;5031899;28;19959;-85
2022/07/16 11:04:36;;;;;;;;;;;;;;;18.75;89.65;101362.34;5034957;28;20389;-88
2022/07/16 11:07:08;;;;;;;;;;;;;;;18.45;79.83;101357.34;5028716;28;20097;-88
2022/07/16 11:09:42;;;;;;;;;;;;;;;18.21;81.17;101365.16;5019491;28;20569;-90
2022/07/16 11:12:17;;;;;;;;;;;;;;;18.13;83.29;101369.47;5025873;28;19933;-90
2022/07/16 11:14:47;;;;;;;;;;;;;;;18.29;83.14;101367.94;5021517;28;20381;-89
2022/07/16 11:17:22;;;;;;;;;;;;;;;17.91;84.30;101365.63;5022188;28;19933;-87
2022/07/16 11:19:56;;;;;;;;;;;;;;;17.70;94.40;101375.47;5018366;28;20400;-86
2022/07/16 11:22:30;;;;;;;;;;;;;;;17.50;97.43;101377.56;5016276;28;19932;-87
2022/07/16 11:25:05;;;;;;;;;;;;;;;17.24;95.77;101375.34;5025211;28;19940;-87
2022/07/16 11:27:41;;;;;;;;;;;;;;;17.30;98.37;101395.31;5020126;28;20316;-87
2022/07/16 11:30:10;;;;;;;;;;;;;;;17.77;100.00;101393.19;5032157;28;19948;-88
2022/07/16 11:32:42;;;;;;;;;;;;;;;17.91;94.11;101390.41;5029235;28;19933;-86
2022/07/16 11:35:15;;;;;;;;;;;;;;;18.44;96.39;101382.47;5019496;28;19947;-85
2022/07/16 11:37:50;;;;;;;;;;;;;;;18.73;92.34;101381.94;5025707;28;20109;-89
2022/07/16 11:40:32;;;;;;;;;;;;;;;19.00;87.79;101380.13;5020371;28;19932;-84
2022/07/16 11:43:06;;;;;;;;;;;;;;;19.19;87.88;101385.38;5030222;28;19933;-85
2022/07/16 11:45:36;;;;;;;;;;;;;;;18.51;75.45;101405.69;5030053;28;20301;-85
2022/07/16 11:48:10;;;;;;;;;;;;;;;17.93;86.76;101404.66;5022613;28;19947;-87
2022/07/16 11:50:44;;;;;;;;;;;;;;;18.17;84.51;101395.25;5020586;28;19968;-88
2022/07/16 11:53:12;;;;;;;;;;;;;;;18.46;81.53;101405.84;5029597;28;20637;-89
2022/07/16 11:55:44;;;;;;;;;;;;;;;18.92;85.28;101414.84;5032074;28;19933;-84
2022/07/16 11:58:15;;;;;;;;;;;;;;;18.61;88.18;101414.81;5049254;28;20511;-86
2022/07/16 12:00:49;;;;;;;;;;;;;;;18.37;85.72;101413.22;5055394;28;19931;-88
2022/07/16 12:03:22;;;;;;;;;;;;;;;18.20;91.23;101424.94;5047858;28;19936;-89
2022/07/16 12:05:59;;;;;;;;;;;;;;;18.20;90.45;101430.44;5061660;28;19924;-89
2022/07/16 12:08:28;;;;;;;;;;;;;;;18.01;80.75;101428.69;5053801;28;20297;-87
2022/07/16 12:11:03;;;;;;;;;;;;;;;17.37;89.29;101438.94;5045916;28;19937;-86
2022/07/16 12:13:40;;;;;;;;;;;;;;;17.37;95.71;101441.69;5056292;28;19928;-86
2022/07/16 12:16:09;;;;;;;;;;;;;;;18.06;95.74;101436.00;5040572;28;19925;-85
2022/07/16 12:18:58;;;;;;;;;;;;;;;18.41;86.40;101438.19;5041004;28;19929;-85
2022/07/16 12:21:27;;;;;;;;;;;;;;;18.66;79.60;101434.00;5043282;28;19936;-86
2022/07/16 12:23:59;;;;;;;;;;;;;;;18.61;82.72;101439.63;5039868;28;19933;-91
2022/07/16 12:26:33;;;;;;;;;;;;;;;19.15;77.49;101432.09;5042808;28;19925;-86
2022/07/16 12:29:08;;;;;;;;;;;;;;;18.99;80.68;101431.72;5040946;28;20420;-88
2022/07/16 12:31:38;;;;;;;;;;;;;;;18.75;80.05;101450.56;5043696;28;19936;-86
2022/07/16 12:34:11;;;;;;;;;;;;;;;18.77;79.84;101443.59;5045388;28;19925;-85
2022/07/16 12:36:44;;;;;;;;;;;;;;;18.62;84.39;101444.00;5047370;28;20370;-90
2022/07/16 12:39:20;;;;;;;;;;;;;;;18.14;82.51;101449.03;5038935;28;19936;-87
2022/07/16 12:41:54;;;;;;;;;;;;;;;17.77;84.92;101459.25;5057943;28;19932;-89
2022/07/16 12:44:28;;;;;;;;;;;;;;;18.45;88.83;101459.31;5051785;28;20316;-85
2022/07/16 12:47:01;;;;;;;;;;;;;;;18.98;82.53;101462.38;5049625;28;19925;-89
2022/07/16 12:49:29;;;;;;;;;;;;;;;19.23;84.89;101454.53;5050387;28;19924;-86
2022/07/16 12:51:59;;;;;;;;;;;;;;;18.93;78.00;101468.03;5051437;28;19944;-88
2022/07/16 13:00:14;;;;;;;;;;;;;;;19.66;74.64;101456.56;5045467;28;19933;-85
2022/07/16 13:02:42;;;;;;;;;;;;;;;19.58;73.36;101455.41;5059851;28;19928;-92